sensor_id;sensor_type;location;lat;lon;timestamp;P1;durP1;ratioP1;P2;durP2;ratioP2
40781;SDS011;26493;51.938;7.626;2023-11-19T00:01:11;27.60;;;25.40;;
40781;SDS011;26493;51.938;7.626;2023-11-19T00:03:37;27.30;;;25.10;;
40781;SDS011;26493;51.938;7.626;2023-11-19T00:06:03;29.13;;;26.73;;
40781;SDS011;26493;51.938;7.626;2023-11-19T00:08:29;29.52;;;27.23;;
40781;SDS011;26493;51.938;7.626;2023-11-19T00:10:55;29.50;;;27.10;;
40781;SDS011;26493;51.938;7.626;2023-11-19T00:13:21;28.13;;;25.92;;
40781;SDS011;26493;51.938;7.626;2023-11-19T00:15:48;30.88;;;28.48;;
40781;SDS011;26493;51.938;7.626;2023-11-19T00:18:14;28.45;;;26.15;;
40781;SDS011;26493;51.938;7.626;2023-11-19T00:20:40;28.15;;;25.95;;
40781;SDS011;26493;51.938;7.626;2023-11-19T00:23:09;29.83;;;27.52;;
40781;SDS011;26493;51.938;7.626;2023-11-19T00:25:35;28.80;;;26.55;;
40781;SDS011;26493;51.938;7.626;2023-11-19T00:28:03;29.40;;;27.00;;
40781;SDS011;26493;51.938;7.626;2023-11-19T00:30:29;29.02;;;26.73;;
40781;SDS011;26493;51.938;7.626;2023-11-19T00:32:56;29.20;;;26.90;;
40781;SDS011;26493;51.938;7.626;2023-11-19T00:35:22;27.98;;;25.77;;
40781;SDS011;26493;51.938;7.626;2023-11-19T00:37:48;28.10;;;25.90;;
40781;SDS011;26493;51.938;7.626;2023-11-19T00:40:15;27.73;;;25.52;;
40781;SDS011;26493;51.938;7.626;2023-11-19T00:42:43;26.58;;;24.40;;
40781;SDS011;26493;51.938;7.626;2023-11-19T00:45:09;28.60;;;26.33;;
40781;SDS011;26493;51.938;7.626;2023-11-19T00:47:35;27.50;;;25.30;;
40781;SDS011;26493;51.938;7.626;2023-11-19T00:50:02;27.00;;;24.80;;
40781;SDS011;26493;51.938;7.626;2023-11-19T00:52:28;26.40;;;24.27;;
40781;SDS011;26493;51.938;7.626;2023-11-19T00:54:54;26.95;;;24.75;;
40781;SDS011;26493;51.938;7.626;2023-11-19T00:57:21;27.50;;;25.30;;
40781;SDS011;26493;51.938;7.626;2023-11-19T00:59:49;25.23;;;23.13;;
40781;SDS011;26493;51.938;7.626;2023-11-19T01:02:15;25.95;;;23.85;;
40781;SDS011;26493;51.938;7.626;2023-11-19T01:04:41;26.60;;;24.40;;
40781;SDS011;26493;51.938;7.626;2023-11-19T01:07:07;26.20;;;24.10;;
40781;SDS011;26493;51.938;7.626;2023-11-19T01:09:37;27.38;;;25.17;;
40781;SDS011;26493;51.938;7.626;2023-11-19T01:12:03;27.67;;;25.48;;
40781;SDS011;26493;51.938;7.626;2023-11-19T01:14:29;28.08;;;25.88;;
40781;SDS011;26493;51.938;7.626;2023-11-19T01:16:56;29.95;;;27.52;;
40781;SDS011;26493;51.938;7.626;2023-11-19T01:19:22;29.77;;;27.48;;
40781;SDS011;26493;51.938;7.626;2023-11-19T01:21:49;32.05;;;29.55;;
40781;SDS011;26493;51.938;7.626;2023-11-19T01:24:15;29.58;;;27.27;;
40781;SDS011;26493;51.938;7.626;2023-11-19T01:26:43;29.42;;;27.05;;
40781;SDS011;26493;51.938;7.626;2023-11-19T01:29:13;29.05;;;26.75;;
40781;SDS011;26493;51.938;7.626;2023-11-19T01:31:40;30.58;;;28.08;;
40781;SDS011;26493;51.938;7.626;2023-11-19T01:34:06;28.25;;;26.05;;
40781;SDS011;26493;51.938;7.626;2023-11-19T01:36:32;29.77;;;27.20;;
40781;SDS011;26493;51.938;7.626;2023-11-19T01:38:58;30.50;;;28.10;;
40781;SDS011;26493;51.938;7.626;2023-11-19T01:41:24;29.63;;;27.33;;
40781;SDS011;26493;51.938;7.626;2023-11-19T01:43:50;29.92;;;27.52;;
40781;SDS011;26493;51.938;7.626;2023-11-19T01:46:16;29.77;;;27.48;;
40781;SDS011;26493;51.938;7.626;2023-11-19T01:48:43;29.38;;;27.08;;
40781;SDS011;26493;51.938;7.626;2023-11-19T01:51:10;29.27;;;26.98;;
40781;SDS011;26493;51.938;7.626;2023-11-19T01:53:37;28.02;;;25.83;;
40781;SDS011;26493;51.938;7.626;2023-11-19T01:56:05;28.40;;;26.20;;
40781;SDS011;26493;51.938;7.626;2023-11-19T01:58:36;29.85;;;27.42;;
40781;SDS011;26493;51.938;7.626;2023-11-19T02:01:03;27.05;;;24.88;;
40781;SDS011;26493;51.938;7.626;2023-11-19T02:03:30;30.10;;;27.60;;
40781;SDS011;26493;51.938;7.626;2023-11-19T02:05:58;27.05;;;24.85;;
40781;SDS011;26493;51.938;7.626;2023-11-19T02:08:24;26.83;;;24.67;;
40781;SDS011;26493;51.938;7.626;2023-11-19T02:10:51;25.88;;;23.77;;
40781;SDS011;26493;51.938;7.626;2023-11-19T02:13:17;28.17;;;25.70;;
40781;SDS011;26493;51.938;7.626;2023-11-19T02:15:43;28.35;;;25.92;;
40781;SDS011;26493;51.938;7.626;2023-11-19T02:20:44;24.33;;;22.13;;
40781;SDS011;26493;51.938;7.626;2023-11-19T02:23:11;25.38;;;23.17;;
40781;SDS011;26493;51.938;7.626;2023-11-19T02:25:37;23.92;;;21.83;;
40781;SDS011;26493;51.938;7.626;2023-11-19T02:28:04;23.67;;;21.48;;
40781;SDS011;26493;51.938;7.626;2023-11-19T02:30:30;24.80;;;22.70;;
40781;SDS011;26493;51.938;7.626;2023-11-19T02:32:57;23.00;;;21.00;;
40781;SDS011;26493;51.938;7.626;2023-11-19T02:35:27;22.30;;;20.20;;
40781;SDS011;26493;51.938;7.626;2023-11-19T02:37:55;23.52;;;21.33;;
40781;SDS011;26493;51.938;7.626;2023-11-19T02:40:22;25.55;;;23.25;;
40781;SDS011;26493;51.938;7.626;2023-11-19T02:42:49;23.83;;;21.70;;
40781;SDS011;26493;51.938;7.626;2023-11-19T02:45:15;20.35;;;18.45;;
40781;SDS011;26493;51.938;7.626;2023-11-19T02:47:42;21.42;;;18.25;;
40781;SDS011;26493;51.938;7.626;2023-11-19T02:50:11;23.27;;;21.08;;
40781;SDS011;26493;51.938;7.626;2023-11-19T02:52:42;20.10;;;18.20;;
40781;SDS011;26493;51.938;7.626;2023-11-19T02:55:08;21.35;;;19.35;;
40781;SDS011;26493;51.938;7.626;2023-11-19T02:57:35;19.40;;;17.58;;
40781;SDS011;26493;51.938;7.626;2023-11-19T03:00:01;21.77;;;19.33;;
40781;SDS011;26493;51.938;7.626;2023-11-19T03:02:37;22.23;;;19.90;;
40781;SDS011;26493;51.938;7.626;2023-11-19T03:05:09;19.13;;;17.33;;
40781;SDS011;26493;51.938;7.626;2023-11-19T03:07:36;19.33;;;17.52;;
40781;SDS011;26493;51.938;7.626;2023-11-19T03:10:02;19.00;;;17.20;;
40781;SDS011;26493;51.938;7.626;2023-11-19T03:12:30;21.88;;;19.67;;
40781;SDS011;26493;51.938;7.626;2023-11-19T03:14:56;21.75;;;17.30;;
40781;SDS011;26493;51.938;7.626;2023-11-19T03:17:22;19.90;;;17.90;;
40781;SDS011;26493;51.938;7.626;2023-11-19T03:19:49;19.52;;;17.52;;
40781;SDS011;26493;51.938;7.626;2023-11-19T03:22:15;21.05;;;18.83;;
40781;SDS011;26493;51.938;7.626;2023-11-19T03:24:41;19.30;;;17.40;;
40781;SDS011;26493;51.938;7.626;2023-11-19T03:27:07;18.80;;;17.00;;
40781;SDS011;26493;51.938;7.626;2023-11-19T03:29:33;18.83;;;17.02;;
40781;SDS011;26493;51.938;7.626;2023-11-19T03:31:59;27.17;;;18.27;;
40781;SDS011;26493;51.938;7.626;2023-11-19T03:34:25;17.92;;;16.13;;
40781;SDS011;26493;51.938;7.626;2023-11-19T03:36:51;17.65;;;15.85;;
40781;SDS011;26493;51.938;7.626;2023-11-19T03:39:17;21.30;;;14.25;;
40781;SDS011;26493;51.938;7.626;2023-11-19T03:41:45;16.55;;;14.15;;
40781;SDS011;26493;51.938;7.626;2023-11-19T03:44:12;20.92;;;14.82;;
40781;SDS011;26493;51.938;7.626;2023-11-19T03:46:38;21.05;;;14.95;;
40781;SDS011;26493;51.938;7.626;2023-11-19T03:49:04;15.95;;;12.60;;
40781;SDS011;26493;51.938;7.626;2023-11-19T03:51:31;16.27;;;12.25;;
40781;SDS011;26493;51.938;7.626;2023-11-19T03:53:59;19.00;;;13.38;;
40781;SDS011;26493;51.938;7.626;2023-11-19T03:56:25;16.05;;;13.38;;
40781;SDS011;26493;51.938;7.626;2023-11-19T03:58:52;16.55;;;11.70;;
40781;SDS011;26493;51.938;7.626;2023-11-19T04:01:18;19.10;;;13.95;;
40781;SDS011;26493;51.938;7.626;2023-11-19T04:03:44;17.10;;;12.90;;
40781;SDS011;26493;51.938;7.626;2023-11-19T04:06:10;16.13;;;12.10;;
40781;SDS011;26493;51.938;7.626;2023-11-19T04:08:36;15.63;;;11.95;;
40781;SDS011;26493;51.938;7.626;2023-11-19T04:11:03;17.23;;;10.02;;
40781;SDS011;26493;51.938;7.626;2023-11-19T04:13:30;15.77;;;10.07;;
40781;SDS011;26493;51.938;7.626;2023-11-19T04:15:56;12.80;;;7.53;;
40781;SDS011;26493;51.938;7.626;2023-11-19T04:18:22;14.05;;;7.53;;
40781;SDS011;26493;51.938;7.626;2023-11-19T04:20:48;11.70;;;6.80;;
40781;SDS011;26493;51.938;7.626;2023-11-19T04:23:15;11.55;;;6.72;;
40781;SDS011;26493;51.938;7.626;2023-11-19T04:25:41;15.73;;;10.02;;
40781;SDS011;26493;51.938;7.626;2023-11-19T04:28:08;18.05;;;8.75;;
40781;SDS011;26493;51.938;7.626;2023-11-19T04:30:34;22.58;;;8.07;;
40781;SDS011;26493;51.938;7.626;2023-11-19T04:33:00;12.02;;;7.10;;
40781;SDS011;26493;51.938;7.626;2023-11-19T04:35:26;10.30;;;6.07;;
40781;SDS011;26493;51.938;7.626;2023-11-19T04:37:52;9.75;;;5.75;;
40781;SDS011;26493;51.938;7.626;2023-11-19T04:40:18;10.32;;;6.20;;
40781;SDS011;26493;51.938;7.626;2023-11-19T04:42:47;10.48;;;5.50;;
40781;SDS011;26493;51.938;7.626;2023-11-19T04:45:13;14.38;;;6.15;;
40781;SDS011;26493;51.938;7.626;2023-11-19T04:47:41;8.70;;;5.00;;
40781;SDS011;26493;51.938;7.626;2023-11-19T04:50:07;9.52;;;5.22;;
40781;SDS011;26493;51.938;7.626;2023-11-19T04:55:01;11.43;;;5.45;;
40781;SDS011;26493;51.938;7.626;2023-11-19T04:57:27;9.18;;;5.18;;
40781;SDS011;26493;51.938;7.626;2023-11-19T04:59:53;8.00;;;4.80;;
40781;SDS011;26493;51.938;7.626;2023-11-19T05:02:19;10.02;;;5.97;;
40781;SDS011;26493;51.938;7.626;2023-11-19T05:04:45;9.90;;;5.28;;
40781;SDS011;26493;51.938;7.626;2023-11-19T05:07:11;14.57;;;5.72;;
40781;SDS011;26493;51.938;7.626;2023-11-19T05:09:37;17.30;;;7.35;;
40781;SDS011;26493;51.938;7.626;2023-11-19T05:12:03;11.65;;;5.43;;
40781;SDS011;26493;51.938;7.626;2023-11-19T05:14:29;19.55;;;7.85;;
40781;SDS011;26493;51.938;7.626;2023-11-19T05:16:55;11.98;;;6.43;;
40781;SDS011;26493;51.938;7.626;2023-11-19T05:19:21;9.15;;;5.25;;
40781;SDS011;26493;51.938;7.626;2023-11-19T05:21:47;10.70;;;5.18;;
40781;SDS011;26493;51.938;7.626;2023-11-19T05:24:17;10.18;;;5.28;;
40781;SDS011;26493;51.938;7.626;2023-11-19T05:26:43;14.30;;;6.60;;
40781;SDS011;26493;51.938;7.626;2023-11-19T05:29:09;12.40;;;7.80;;
40781;SDS011;26493;51.938;7.626;2023-11-19T05:31:35;9.32;;;5.28;;
40781;SDS011;26493;51.938;7.626;2023-11-19T05:34:01;11.90;;;6.15;;
40781;SDS011;26493;51.938;7.626;2023-11-19T05:36:26;12.20;;;7.30;;
40781;SDS011;26493;51.938;7.626;2023-11-19T05:38:54;11.52;;;6.38;;
40781;SDS011;26493;51.938;7.626;2023-11-19T05:41:19;12.55;;;7.13;;
40781;SDS011;26493;51.938;7.626;2023-11-19T05:43:45;11.85;;;6.15;;
40781;SDS011;26493;51.938;7.626;2023-11-19T05:46:11;9.30;;;5.50;;
40781;SDS011;26493;51.938;7.626;2023-11-19T05:48:38;9.50;;;5.80;;
40781;SDS011;26493;51.938;7.626;2023-11-19T05:51:04;9.02;;;5.22;;
40781;SDS011;26493;51.938;7.626;2023-11-19T05:53:31;24.67;;;7.30;;
40781;SDS011;26493;51.938;7.626;2023-11-19T05:55:57;22.65;;;6.53;;
40781;SDS011;26493;51.938;7.626;2023-11-19T05:58:24;14.60;;;6.25;;
40781;SDS011;26493;51.938;7.626;2023-11-19T06:00:51;10.23;;;5.63;;
40781;SDS011;26493;51.938;7.626;2023-11-19T06:05:57;16.95;;;7.50;;
40781;SDS011;26493;51.938;7.626;2023-11-19T06:08:23;12.05;;;6.00;;
40781;SDS011;26493;51.938;7.626;2023-11-19T06:10:52;10.43;;;5.53;;
40781;SDS011;26493;51.938;7.626;2023-11-19T06:13:18;14.88;;;8.27;;
40781;SDS011;26493;51.938;7.626;2023-11-19T06:15:44;14.40;;;6.32;;
40781;SDS011;26493;51.938;7.626;2023-11-19T06:18:11;9.65;;;5.35;;
40781;SDS011;26493;51.938;7.626;2023-11-19T06:20:37;16.52;;;7.95;;
40781;SDS011;26493;51.938;7.626;2023-11-19T06:23:03;8.43;;;4.97;;
40781;SDS011;26493;51.938;7.626;2023-11-19T06:25:29;13.10;;;6.60;;
40781;SDS011;26493;51.938;7.626;2023-11-19T06:27:55;11.95;;;5.57;;
40781;SDS011;26493;51.938;7.626;2023-11-19T06:30:22;15.68;;;7.05;;
40781;SDS011;26493;51.938;7.626;2023-11-19T06:32:48;15.45;;;6.40;;
40781;SDS011;26493;51.938;7.626;2023-11-19T06:35:14;14.77;;;5.80;;
40781;SDS011;26493;51.938;7.626;2023-11-19T06:37:40;8.15;;;4.85;;
40781;SDS011;26493;51.938;7.626;2023-11-19T06:40:07;14.82;;;5.93;;
40781;SDS011;26493;51.938;7.626;2023-11-19T06:42:34;13.50;;;6.30;;
40781;SDS011;26493;51.938;7.626;2023-11-19T06:45:00;15.23;;;6.28;;
40781;SDS011;26493;51.938;7.626;2023-11-19T06:47:26;11.98;;;5.30;;
40781;SDS011;26493;51.938;7.626;2023-11-19T06:49:53;17.00;;;9.07;;
40781;SDS011;26493;51.938;7.626;2023-11-19T06:52:19;17.98;;;7.03;;
40781;SDS011;26493;51.938;7.626;2023-11-19T06:54:45;11.73;;;5.28;;
40781;SDS011;26493;51.938;7.626;2023-11-19T06:57:11;20.77;;;7.45;;
40781;SDS011;26493;51.938;7.626;2023-11-19T06:59:37;19.58;;;8.88;;
40781;SDS011;26493;51.938;7.626;2023-11-19T07:02:04;8.93;;;5.10;;
40781;SDS011;26493;51.938;7.626;2023-11-19T07:04:30;28.33;;;8.52;;
40781;SDS011;26493;51.938;7.626;2023-11-19T07:06:56;9.18;;;5.03;;
40781;SDS011;26493;51.938;7.626;2023-11-19T07:09:22;9.80;;;5.72;;
40781;SDS011;26493;51.938;7.626;2023-11-19T07:11:48;18.48;;;5.75;;
40781;SDS011;26493;51.938;7.626;2023-11-19T07:14:17;19.85;;;6.72;;
40781;SDS011;26493;51.938;7.626;2023-11-19T07:16:43;10.10;;;5.47;;
40781;SDS011;26493;51.938;7.626;2023-11-19T07:19:10;10.93;;;5.63;;
40781;SDS011;26493;51.938;7.626;2023-11-19T07:21:36;17.50;;;6.43;;
40781;SDS011;26493;51.938;7.626;2023-11-19T07:24:04;16.08;;;5.47;;
40781;SDS011;26493;51.938;7.626;2023-11-19T07:26:30;16.55;;;6.43;;
40781;SDS011;26493;51.938;7.626;2023-11-19T07:28:56;10.48;;;5.38;;
40781;SDS011;26493;51.938;7.626;2023-11-19T07:31:23;12.23;;;5.70;;
40781;SDS011;26493;51.938;7.626;2023-11-19T07:33:49;16.17;;;6.03;;
40781;SDS011;26493;51.938;7.626;2023-11-19T07:36:16;15.00;;;7.25;;
40781;SDS011;26493;51.938;7.626;2023-11-19T07:38:42;11.70;;;7.22;;
40781;SDS011;26493;51.938;7.626;2023-11-19T07:41:08;17.30;;;6.60;;
40781;SDS011;26493;51.938;7.626;2023-11-19T07:43:37;8.85;;;5.03;;
40781;SDS011;26493;51.938;7.626;2023-11-19T07:46:03;11.35;;;5.65;;
40781;SDS011;26493;51.938;7.626;2023-11-19T07:48:29;18.08;;;7.18;;
40781;SDS011;26493;51.938;7.626;2023-11-19T07:50:55;13.02;;;6.85;;
40781;SDS011;26493;51.938;7.626;2023-11-19T07:53:21;10.07;;;5.55;;
40781;SDS011;26493;51.938;7.626;2023-11-19T07:55:47;18.38;;;9.07;;
40781;SDS011;26493;51.938;7.626;2023-11-19T07:58:13;12.30;;;6.82;;
40781;SDS011;26493;51.938;7.626;2023-11-19T08:00:39;25.10;;;8.65;;
40781;SDS011;26493;51.938;7.626;2023-11-19T08:03:06;18.05;;;7.40;;
40781;SDS011;26493;51.938;7.626;2023-11-19T08:05:32;13.27;;;5.93;;
40781;SDS011;26493;51.938;7.626;2023-11-19T08:07:58;27.25;;;6.50;;
40781;SDS011;26493;51.938;7.626;2023-11-19T08:10:24;8.60;;;5.10;;
40781;SDS011;26493;51.938;7.626;2023-11-19T08:12:50;9.65;;;5.50;;
40781;SDS011;26493;51.938;7.626;2023-11-19T08:15:16;10.55;;;5.65;;
40781;SDS011;26493;51.938;7.626;2023-11-19T08:17:42;14.50;;;6.97;;
40781;SDS011;26493;51.938;7.626;2023-11-19T08:20:09;16.45;;;6.25;;
40781;SDS011;26493;51.938;7.626;2023-11-19T08:22:36;21.95;;;8.00;;
40781;SDS011;26493;51.938;7.626;2023-11-19T08:25:04;11.45;;;6.35;;
40781;SDS011;26493;51.938;7.626;2023-11-19T08:27:30;8.80;;;5.18;;
40781;SDS011;26493;51.938;7.626;2023-11-19T08:29:56;15.15;;;7.18;;
40781;SDS011;26493;51.938;7.626;2023-11-19T08:32:25;10.77;;;5.35;;
40781;SDS011;26493;51.938;7.626;2023-11-19T08:34:51;10.70;;;4.90;;
40781;SDS011;26493;51.938;7.626;2023-11-19T08:37:17;20.33;;;8.60;;
40781;SDS011;26493;51.938;7.626;2023-11-19T08:39:46;11.77;;;6.70;;
40781;SDS011;26493;51.938;7.626;2023-11-19T08:42:12;27.88;;;6.97;;
40781;SDS011;26493;51.938;7.626;2023-11-19T08:44:38;14.68;;;6.32;;
40781;SDS011;26493;51.938;7.626;2023-11-19T08:47:05;21.55;;;8.20;;
40781;SDS011;26493;51.938;7.626;2023-11-19T08:49:31;13.20;;;7.03;;
40781;SDS011;26493;51.938;7.626;2023-11-19T08:51:57;11.70;;;5.90;;
40781;SDS011;26493;51.938;7.626;2023-11-19T08:54:23;15.50;;;6.30;;
40781;SDS011;26493;51.938;7.626;2023-11-19T08:56:49;15.48;;;6.13;;
40781;SDS011;26493;51.938;7.626;2023-11-19T08:59:15;18.20;;;8.55;;
40781;SDS011;26493;51.938;7.626;2023-11-19T09:01:41;20.75;;;5.82;;
40781;SDS011;26493;51.938;7.626;2023-11-19T09:04:07;11.57;;;6.18;;
40781;SDS011;26493;51.938;7.626;2023-11-19T09:06:34;22.95;;;9.20;;
40781;SDS011;26493;51.938;7.626;2023-11-19T09:09:01;8.80;;;5.30;;
40781;SDS011;26493;51.938;7.626;2023-11-19T09:11:31;11.45;;;6.00;;
40781;SDS011;26493;51.938;7.626;2023-11-19T09:13:57;14.77;;;7.32;;
40781;SDS011;26493;51.938;7.626;2023-11-19T09:16:23;11.85;;;9.43;;
40781;SDS011;26493;51.938;7.626;2023-11-19T09:18:50;12.43;;;5.97;;
40781;SDS011;26493;51.938;7.626;2023-11-19T09:21:16;37.10;;;8.25;;
40781;SDS011;26493;51.938;7.626;2023-11-19T09:23:42;16.88;;;7.07;;
40781;SDS011;26493;51.938;7.626;2023-11-19T09:26:09;14.95;;;8.35;;
40781;SDS011;26493;51.938;7.626;2023-11-19T09:28:36;13.38;;;5.88;;
40781;SDS011;26493;51.938;7.626;2023-11-19T09:31:02;17.75;;;6.93;;
40781;SDS011;26493;51.938;7.626;2023-11-19T09:33:31;10.38;;;6.78;;
40781;SDS011;26493;51.938;7.626;2023-11-19T09:35:58;10.35;;;6.07;;
40781;SDS011;26493;51.938;7.626;2023-11-19T09:38:24;8.95;;;5.03;;
40781;SDS011;26493;51.938;7.626;2023-11-19T09:40:50;16.48;;;8.55;;
40781;SDS011;26493;51.938;7.626;2023-11-19T09:43:16;16.42;;;8.60;;
40781;SDS011;26493;51.938;7.626;2023-11-19T09:45:49;19.92;;;7.63;;
40781;SDS011;26493;51.938;7.626;2023-11-19T09:48:19;12.75;;;6.43;;
40781;SDS011;26493;51.938;7.626;2023-11-19T09:50:46;12.20;;;5.88;;
40781;SDS011;26493;51.938;7.626;2023-11-19T09:53:12;13.77;;;6.25;;
40781;SDS011;26493;51.938;7.626;2023-11-19T09:55:39;13.18;;;6.43;;
40781;SDS011;26493;51.938;7.626;2023-11-19T09:58:05;8.50;;;5.00;;
40781;SDS011;26493;51.938;7.626;2023-11-19T10:00:32;19.73;;;7.97;;
40781;SDS011;26493;51.938;7.626;2023-11-19T10:02:58;26.23;;;8.30;;
40781;SDS011;26493;51.938;7.626;2023-11-19T10:05:25;16.55;;;6.28;;
40781;SDS011;26493;51.938;7.626;2023-11-19T10:07:51;23.27;;;6.28;;
40781;SDS011;26493;51.938;7.626;2023-11-19T10:10:17;18.83;;;7.28;;
40781;SDS011;26493;51.938;7.626;2023-11-19T10:12:47;14.93;;;5.95;;
40781;SDS011;26493;51.938;7.626;2023-11-19T10:15:20;14.52;;;7.30;;
40781;SDS011;26493;51.938;7.626;2023-11-19T10:17:58;13.35;;;9.65;;
40781;SDS011;26493;51.938;7.626;2023-11-19T10:20:25;30.42;;;9.18;;
40781;SDS011;26493;51.938;7.626;2023-11-19T10:22:54;9.35;;;5.55;;
40781;SDS011;26493;51.938;7.626;2023-11-19T10:25:30;17.95;;;8.52;;
40781;SDS011;26493;51.938;7.626;2023-11-19T10:27:56;31.52;;;9.38;;
40781;SDS011;26493;51.938;7.626;2023-11-19T10:33:04;10.93;;;6.88;;
40781;SDS011;26493;51.938;7.626;2023-11-19T10:35:50;17.80;;;6.68;;
40781;SDS011;26493;51.938;7.626;2023-11-19T10:38:18;9.85;;;5.68;;
40781;SDS011;26493;51.938;7.626;2023-11-19T10:40:44;15.75;;;6.95;;
40781;SDS011;26493;51.938;7.626;2023-11-19T10:43:10;11.25;;;6.95;;
40781;SDS011;26493;51.938;7.626;2023-11-19T10:45:37;16.77;;;6.93;;
40781;SDS011;26493;51.938;7.626;2023-11-19T10:48:03;11.55;;;7.07;;
40781;SDS011;26493;51.938;7.626;2023-11-19T10:50:33;18.02;;;6.60;;
40781;SDS011;26493;51.938;7.626;2023-11-19T10:53:00;21.60;;;7.30;;
40781;SDS011;26493;51.938;7.626;2023-11-19T10:55:27;17.27;;;6.82;;
40781;SDS011;26493;51.938;7.626;2023-11-19T10:57:56;14.20;;;8.20;;
40781;SDS011;26493;51.938;7.626;2023-11-19T11:00:24;13.95;;;6.32;;
40781;SDS011;26493;51.938;7.626;2023-11-19T11:02:50;16.05;;;6.60;;
40781;SDS011;26493;51.938;7.626;2023-11-19T11:05:20;11.65;;;5.97;;
40781;SDS011;26493;51.938;7.626;2023-11-19T11:07:46;16.60;;;7.53;;
40781;SDS011;26493;51.938;7.626;2023-11-19T11:10:12;12.00;;;6.88;;
40781;SDS011;26493;51.938;7.626;2023-11-19T11:12:39;29.88;;;6.70;;
40781;SDS011;26493;51.938;7.626;2023-11-19T11:15:06;19.65;;;7.15;;
40781;SDS011;26493;51.938;7.626;2023-11-19T11:17:33;14.10;;;7.47;;
40781;SDS011;26493;51.938;7.626;2023-11-19T11:19:59;18.15;;;7.72;;
40781;SDS011;26493;51.938;7.626;2023-11-19T11:22:25;13.90;;;7.32;;
40781;SDS011;26493;51.938;7.626;2023-11-19T11:30:14;18.83;;;8.27;;
40781;SDS011;26493;51.938;7.626;2023-11-19T11:32:45;18.30;;;8.57;;
40781;SDS011;26493;51.938;7.626;2023-11-19T11:37:46;32.15;;;10.85;;
40781;SDS011;26493;51.938;7.626;2023-11-19T11:40:16;17.27;;;6.07;;
40781;SDS011;26493;51.938;7.626;2023-11-19T11:42:43;14.38;;;6.97;;
40781;SDS011;26493;51.938;7.626;2023-11-19T11:45:10;15.63;;;8.32;;
40781;SDS011;26493;51.938;7.626;2023-11-19T11:50:14;14.32;;;6.82;;
40781;SDS011;26493;51.938;7.626;2023-11-19T11:55:26;13.23;;;7.78;;
40781;SDS011;26493;51.938;7.626;2023-11-19T11:57:52;10.45;;;5.70;;
40781;SDS011;26493;51.938;7.626;2023-11-19T12:00:40;21.90;;;9.70;;
40781;SDS011;26493;51.938;7.626;2023-11-19T12:03:07;10.25;;;6.03;;
40781;SDS011;26493;51.938;7.626;2023-11-19T12:05:38;9.38;;;5.50;;
40781;SDS011;26493;51.938;7.626;2023-11-19T12:08:04;17.25;;;6.60;;
40781;SDS011;26493;51.938;7.626;2023-11-19T12:10:33;13.10;;;6.78;;
40781;SDS011;26493;51.938;7.626;2023-11-19T12:13:03;9.43;;;5.60;;
40781;SDS011;26493;51.938;7.626;2023-11-19T12:15:33;14.48;;;6.63;;
40781;SDS011;26493;51.938;7.626;2023-11-19T12:17:59;25.40;;;6.55;;
40781;SDS011;26493;51.938;7.626;2023-11-19T12:20:25;9.82;;;5.80;;
40781;SDS011;26493;51.938;7.626;2023-11-19T12:22:52;27.48;;;9.80;;
40781;SDS011;26493;51.938;7.626;2023-11-19T12:25:19;19.83;;;7.22;;
40781;SDS011;26493;51.938;7.626;2023-11-19T12:30:12;9.60;;;5.70;;
40781;SDS011;26493;51.938;7.626;2023-11-19T12:32:38;13.90;;;7.72;;
40781;SDS011;26493;51.938;7.626;2023-11-19T12:35:05;10.18;;;5.88;;
40781;SDS011;26493;51.938;7.626;2023-11-19T12:37:31;15.70;;;6.15;;
40781;SDS011;26493;51.938;7.626;2023-11-19T12:39:57;13.18;;;5.78;;
40781;SDS011;26493;51.938;7.626;2023-11-19T12:42:36;9.90;;;5.63;;
40781;SDS011;26493;51.938;7.626;2023-11-19T12:45:03;13.13;;;6.80;;
40781;SDS011;26493;51.938;7.626;2023-11-19T12:47:29;10.15;;;5.95;;
40781;SDS011;26493;51.938;7.626;2023-11-19T12:49:56;10.50;;;6.20;;
40781;SDS011;26493;51.938;7.626;2023-11-19T12:52:22;9.95;;;5.93;;
40781;SDS011;26493;51.938;7.626;2023-11-19T12:54:48;23.50;;;7.60;;
40781;SDS011;26493;51.938;7.626;2023-11-19T12:57:14;9.40;;;5.53;;
40781;SDS011;26493;51.938;7.626;2023-11-19T12:59:41;10.10;;;6.25;;
40781;SDS011;26493;51.938;7.626;2023-11-19T13:02:08;14.80;;;8.60;;
40781;SDS011;26493;51.938;7.626;2023-11-19T13:04:34;14.82;;;7.68;;
40781;SDS011;26493;51.938;7.626;2023-11-19T13:07:00;20.75;;;7.53;;
40781;SDS011;26493;51.938;7.626;2023-11-19T13:09:29;15.88;;;7.18;;
40781;SDS011;26493;51.938;7.626;2023-11-19T13:11:55;9.35;;;5.55;;
40781;SDS011;26493;51.938;7.626;2023-11-19T13:14:22;10.48;;;6.10;;
40781;SDS011;26493;51.938;7.626;2023-11-19T13:16:48;11.55;;;6.45;;
40781;SDS011;26493;51.938;7.626;2023-11-19T13:19:15;13.70;;;7.25;;
40781;SDS011;26493;51.938;7.626;2023-11-19T13:21:41;20.02;;;6.13;;
40781;SDS011;26493;51.938;7.626;2023-11-19T13:24:08;11.65;;;6.88;;
40781;SDS011;26493;51.938;7.626;2023-11-19T13:26:34;12.50;;;7.28;;
40781;SDS011;26493;51.938;7.626;2023-11-19T13:29:01;11.45;;;6.55;;
40781;SDS011;26493;51.938;7.626;2023-11-19T13:31:27;13.35;;;7.10;;
40781;SDS011;26493;51.938;7.626;2023-11-19T13:33:53;17.80;;;7.72;;
40781;SDS011;26493;51.938;7.626;2023-11-19T13:36:19;17.50;;;7.15;;
40781;SDS011;26493;51.938;7.626;2023-11-19T13:38:45;9.88;;;5.80;;
40781;SDS011;26493;51.938;7.626;2023-11-19T13:41:12;11.43;;;6.63;;
40781;SDS011;26493;51.938;7.626;2023-11-19T13:43:39;10.02;;;6.15;;
40781;SDS011;26493;51.938;7.626;2023-11-19T13:46:05;14.95;;;9.60;;
40781;SDS011;26493;51.938;7.626;2023-11-19T13:48:31;19.30;;;8.70;;
40781;SDS011;26493;51.938;7.626;2023-11-19T13:50:57;11.02;;;6.80;;
40781;SDS011;26493;51.938;7.626;2023-11-19T13:53:23;12.32;;;6.50;;
40781;SDS011;26493;51.938;7.626;2023-11-19T13:55:49;11.90;;;7.03;;
40781;SDS011;26493;51.938;7.626;2023-11-19T13:58:15;13.60;;;7.65;;
40781;SDS011;26493;51.938;7.626;2023-11-19T14:00:42;13.13;;;7.18;;
40781;SDS011;26493;51.938;7.626;2023-11-19T14:03:08;10.48;;;5.80;;
40781;SDS011;26493;51.938;7.626;2023-11-19T14:05:38;17.02;;;8.02;;
40781;SDS011;26493;51.938;7.626;2023-11-19T14:08:06;9.65;;;5.68;;
40781;SDS011;26493;51.938;7.626;2023-11-19T14:10:38;13.98;;;7.60;;
40781;SDS011;26493;51.938;7.626;2023-11-19T14:13:05;11.75;;;6.72;;
40781;SDS011;26493;51.938;7.626;2023-11-19T14:15:31;12.07;;;6.50;;
40781;SDS011;26493;51.938;7.626;2023-11-19T14:17:57;21.58;;;8.68;;
40781;SDS011;26493;51.938;7.626;2023-11-19T14:20:24;14.60;;;6.18;;
40781;SDS011;26493;51.938;7.626;2023-11-19T14:22:50;11.18;;;8.32;;
40781;SDS011;26493;51.938;7.626;2023-11-19T14:25:17;12.32;;;6.63;;
40781;SDS011;26493;51.938;7.626;2023-11-19T14:27:44;15.05;;;6.82;;
40781;SDS011;26493;51.938;7.626;2023-11-19T14:30:14;13.10;;;6.53;;
40781;SDS011;26493;51.938;7.626;2023-11-19T14:32:41;20.88;;;7.03;;
40781;SDS011;26493;51.938;7.626;2023-11-19T14:35:09;18.75;;;6.10;;
40781;SDS011;26493;51.938;7.626;2023-11-19T14:37:35;16.55;;;7.28;;
40781;SDS011;26493;51.938;7.626;2023-11-19T14:40:01;17.95;;;6.88;;
40781;SDS011;26493;51.938;7.626;2023-11-19T14:42:31;12.75;;;7.32;;
40781;SDS011;26493;51.938;7.626;2023-11-19T14:44:57;22.25;;;6.45;;
40781;SDS011;26493;51.938;7.626;2023-11-19T14:47:23;10.13;;;5.60;;
40781;SDS011;26493;51.938;7.626;2023-11-19T14:49:49;19.83;;;7.07;;
40781;SDS011;26493;51.938;7.626;2023-11-19T14:52:16;12.60;;;7.05;;
40781;SDS011;26493;51.938;7.626;2023-11-19T14:54:42;15.20;;;6.88;;